This is the latest recevied weather packets stored in our database for station/object KE5VT. If no packets are shown the sender has not sent any weather packets the latest 10 day(s).
| Time | Temp. | Humidity | Pressure | Rain* | Wind** | Luminosity | Snow |
|---|---|---|---|---|---|---|---|
| 1777465930 | 16.67° C | 98% | 1009.7 hPa | 0 mm | - | 38 W/m² | - |
| 1777465627 | 16.11° C | 98% | 1010.2 hPa | 0 mm | - | 25 W/m² | - |
| 1777465322 | 16.11° C | 98% | 1010.8 hPa | 0 mm | - | 15 W/m² | - |
| 1777465016 | 16.11° C | 98% | 1010.4 hPa | 0 mm | - | 22 W/m² | - |
| 1777464711 | 16.11° C | 98% | 1010.2 hPa | 0 mm | - | 23 W/m² | - |
| 1777464408 | 16.11° C | 98% | 1010.1 hPa | 0 mm | - | 25 W/m² | - |
| 1777464104 | 16.11° C | 98% | 1009.8 hPa | 0 mm | - | 24 W/m² | - |
| 1777463803 | 16.11° C | 98% | 1009.9 hPa | 0 mm | - | 24 W/m² | - |
| 1777463499 | 16.11° C | 98% | 1010 hPa | 0 mm | - | 22 W/m² | - |
| 1777463195 | 16.11° C | 98% | 1010 hPa | 0 mm | - | 17 W/m² | - |
| 1777462891 | 16.11° C | 98% | 1010 hPa | 0 mm | - | 13 W/m² | - |
| 1777462587 | 16.11° C | 98% | 1009.9 hPa | 0 mm | - | 11 W/m² | - |
| 1777462283 | 16.11° C | 98% | 1010.1 hPa | 0 mm | - | 9 W/m² | - |
| 1777461979 | 16.11° C | 98% | 1010.1 hPa | 0 mm | - | 8 W/m² | - |
| 1777461676 | 16.11° C | 98% | 1010.3 hPa | 0 mm | - | 7 W/m² | - |
| 1777461376 | 16.11° C | 98% | 1010.3 hPa | 0 mm | - | 6 W/m² | - |
| 1777461072 | 16.11° C | 98% | 1010.4 hPa | 0 mm | - | 5 W/m² | - |
| 1777460768 | 16.11° C | 98% | 1010.7 hPa | 0 mm | - | 4 W/m² | - |
| 1777460464 | 16.11° C | 98% | 1010.7 hPa | 0 mm | - | 2 W/m² | - |
| 1777460159 | 16.11° C | 98% | 1010.8 hPa | 0 mm | - | 2 W/m² | - |
| 1777459857 | 16.11° C | 98% | 1010.7 hPa | 0 mm | - | 1 W/m² | - |
| 1777459554 | 16.11° C | 98% | 1010.7 hPa | 0 mm | - | 1 W/m² | - |
| 1777459251 | 16.11° C | 98% | 1010.8 hPa | 0 mm | - | 1 W/m² | - |
| 1777458949 | 16.11° C | 98% | 1010.9 hPa | 0 mm | - | 0 W/m² | - |
| 1777458645 | 16.11° C | 98% | 1010.9 hPa | 0 mm | - | 0 W/m² | - |
* Rain latest hour (hover to see other rain measurements)
** Current wind speed in m/s (hover to see current wind gust speed)